createdAt,value
2019-05-07T00:02:02.770Z,52.90
2019-05-07T00:04:33.052Z,52.50
2019-05-07T00:07:02.359Z,52.40
2019-05-07T00:09:32.277Z,52.80
2019-05-07T00:12:02.761Z,52.40
2019-05-07T00:14:32.370Z,52.50
2019-05-07T00:17:02.226Z,52.40
2019-05-07T00:19:32.538Z,52.30
2019-05-07T00:22:02.358Z,52.50
2019-05-07T00:24:33.151Z,52.40
2019-05-07T00:27:02.824Z,52.40
2019-05-07T00:29:32.246Z,52.30
2019-05-07T00:32:02.931Z,52.20
2019-05-07T00:34:32.957Z,52.60
2019-05-07T00:37:08.701Z,52.70
2019-05-07T00:39:55.023Z,52.40
2019-05-07T00:42:27.928Z,52.40
2019-05-07T00:45:12.326Z,52.50
2019-05-07T00:47:29.250Z,52.70
2019-05-07T00:49:59.428Z,53.10
2019-05-07T00:52:27.901Z,53.30
2019-05-07T00:54:56.495Z,53.50
2019-05-07T00:57:25.059Z,53.60
2019-05-07T00:59:53.592Z,53.70
2019-05-07T01:02:23.452Z,53.80
2019-05-07T01:04:53.170Z,54.60
2019-05-07T01:07:23.007Z,54.10
2019-05-07T01:09:52.508Z,54.00
2019-05-07T01:12:22.227Z,54.00
2019-05-07T01:14:52.913Z,54.10
2019-05-07T01:17:22.753Z,54.30
2019-05-07T01:19:53.206Z,54.50
2019-05-07T01:22:22.300Z,54.50
2019-05-07T01:24:52.720Z,54.70
2019-05-07T01:27:22.675Z,54.70
2019-05-07T01:29:52.956Z,54.70
2019-05-07T01:32:29.037Z,54.80
2019-05-07T01:34:59.240Z,55.00
2019-05-07T01:37:27.804Z,55.10
2019-05-07T01:39:56.674Z,55.10
2019-05-07T01:42:25.203Z,55.20
2019-05-07T01:44:53.790Z,55.40
2019-05-07T01:47:23.771Z,55.50
2019-05-07T01:49:55.069Z,55.80
2019-05-07T01:52:22.856Z,55.60
2019-05-07T01:54:52.254Z,55.90
2019-05-07T01:57:22.994Z,55.60
2019-05-07T01:59:52.800Z,55.60
2019-05-07T02:02:25.933Z,55.60
2019-05-07T02:04:56.119Z,55.60
2019-05-07T02:07:27.284Z,55.80
2019-05-07T02:09:58.854Z,55.30
2019-05-07T02:12:28.960Z,55.60
2019-05-07T02:14:57.491Z,55.60
2019-05-07T02:17:26.093Z,55.20
2019-05-07T02:19:54.658Z,55.20
2019-05-07T02:22:23.189Z,55.10
2019-05-07T02:24:52.318Z,54.80
2019-05-07T02:27:22.144Z,54.90
2019-05-07T02:29:52.873Z,54.50
2019-05-07T02:32:24.007Z,54.60
2019-05-07T02:34:54.483Z,54.80
2019-05-07T02:37:27.380Z,54.90
2019-05-07T02:40:04.216Z,55.40
2019-05-07T02:42:33.574Z,54.80
2019-05-07T02:45:15.346Z,54.90
2019-05-07T02:47:44.005Z,54.90
2019-05-07T02:50:17.667Z,54.90
2019-05-07T02:52:55.938Z,55.00
2019-05-07T02:55:33.713Z,55.00
2019-05-07T02:58:03.594Z,55.10
2019-05-07T03:00:33.344Z,54.80
2019-05-07T03:03:04.115Z,55.20
2019-05-07T03:05:34.881Z,54.50
2019-05-07T03:08:03.668Z,54.60
2019-05-07T03:10:34.032Z,54.60
2019-05-07T03:13:03.325Z,54.50
2019-05-07T03:15:33.616Z,54.30
2019-05-07T03:18:03.561Z,54.20
2019-05-07T03:20:53.556Z,54.60
2019-05-07T03:23:23.988Z,54.30
2019-05-07T03:25:54.907Z,54.00
2019-05-07T03:28:25.108Z,53.40
2019-05-07T03:30:57.961Z,53.20
2019-05-07T03:33:40.042Z,53.30
2019-05-07T03:36:09.701Z,53.60
2019-05-07T03:38:38.253Z,53.30
2019-05-07T03:41:06.862Z,53.50
2019-05-07T03:43:35.396Z,53.20
2019-05-07T03:46:05.677Z,53.20
2019-05-07T03:48:35.909Z,53.10
2019-05-07T03:51:04.527Z,53.00
2019-05-07T03:53:33.790Z,52.80
2019-05-07T03:56:04.076Z,52.80
2019-05-07T03:58:34.276Z,52.10
2019-05-07T04:01:04.386Z,52.60
2019-05-07T04:03:34.300Z,52.90
2019-05-07T04:06:04.090Z,52.90
2019-05-07T04:08:33.363Z,52.60
2019-05-07T04:11:03.539Z,52.60
2019-05-07T04:13:33.424Z,53.00
2019-05-07T04:16:04.006Z,53.10
2019-05-07T04:18:33.327Z,53.20
2019-05-07T04:21:03.876Z,52.60
2019-05-07T04:23:34.263Z,52.70
2019-05-07T04:26:04.634Z,52.60
2019-05-07T04:28:35.077Z,52.40
2019-05-07T04:31:04.011Z,52.50
2019-05-07T04:33:34.252Z,52.40
2019-05-07T04:36:04.452Z,52.10
2019-05-07T04:38:33.562Z,52.00
2019-05-07T04:41:03.828Z,51.70
2019-05-07T04:43:33.652Z,52.10
2019-05-07T04:46:03.376Z,52.20
2019-05-07T04:48:34.060Z,51.20
2019-05-07T04:51:04.069Z,50.90
2019-05-07T04:53:32.895Z,51.10
2019-05-07T04:56:03.276Z,50.80
2019-05-07T04:58:33.873Z,50.30
2019-05-07T05:01:03.256Z,49.50
2019-05-07T05:03:34.691Z,49.50
2019-05-07T05:06:02.825Z,49.20
2019-05-07T05:08:32.627Z,48.20
2019-05-07T05:11:03.333Z,48.50
2019-05-07T05:13:33.009Z,49.10
2019-05-07T05:16:03.468Z,49.50
2019-05-07T05:18:32.988Z,48.30
2019-05-07T05:21:08.913Z,48.00
2019-05-07T05:23:39.123Z,47.60
2019-05-07T05:26:07.668Z,47.10
2019-05-07T05:28:36.209Z,47.50
2019-05-07T05:31:07.908Z,47.60
2019-05-07T05:33:36.476Z,47.80
2019-05-07T05:36:05.093Z,47.80
2019-05-07T05:38:33.668Z,47.90
2019-05-07T05:41:02.836Z,47.90
2019-05-07T05:43:33.224Z,48.60
2019-05-07T05:46:09.269Z,48.90
2019-05-07T05:48:37.806Z,49.00
2019-05-07T05:51:24.161Z,49.40
2019-05-07T05:53:57.032Z,50.00
2019-05-07T05:56:32.280Z,49.30
2019-05-07T05:59:12.120Z,49.30
2019-05-07T06:01:45.523Z,49.00
2019-05-07T06:04:15.737Z,49.40
2019-05-07T06:06:48.637Z,49.40
2019-05-07T06:09:28.795Z,49.40
2019-05-07T06:11:58.975Z,48.90
2019-05-07T06:14:29.278Z,49.00
2019-05-07T06:17:12.930Z,48.20
2019-05-07T06:19:42.532Z,49.50
2019-05-07T06:22:16.846Z,49.40
2019-05-07T06:24:52.013Z,49.20
2019-05-07T06:27:19.964Z,49.30
2019-05-07T06:29:48.436Z,48.70
2019-05-07T06:32:18.661Z,48.40
2019-05-07T06:34:47.638Z,48.50
2019-05-07T06:37:16.177Z,49.40
2019-05-07T06:39:48.940Z,49.20
2019-05-07T06:42:35.455Z,47.80
2019-05-07T06:45:16.916Z,47.70
2019-05-07T06:47:45.492Z,47.40
2019-05-07T06:50:14.407Z,46.80
2019-05-07T06:52:42.951Z,47.80
2019-05-07T06:55:12.228Z,47.30
2019-05-07T06:57:42.526Z,47.40
2019-05-07T07:00:25.036Z,45.60
2019-05-07T07:03:02.022Z,45.80
2019-05-07T07:05:35.159Z,45.00
2019-05-07T07:08:08.504Z,44.90
2019-05-07T07:10:54.832Z,44.00
2019-05-07T07:13:25.145Z,43.80
2019-05-07T07:15:53.780Z,43.00
2019-05-07T07:18:23.047Z,42.80
2019-05-07T07:20:52.554Z,42.70
2019-05-07T07:23:22.690Z,42.40
2019-05-07T07:25:52.273Z,42.20
2019-05-07T07:28:21.992Z,39.60
2019-05-07T07:30:58.377Z,39.00
2019-05-07T07:33:28.549Z,37.80
2019-05-07T07:35:57.422Z,37.60
2019-05-07T07:38:35.948Z,35.70
2019-05-07T07:41:12.714Z,36.10
2019-05-07T07:43:42.018Z,35.70
2019-05-07T07:46:13.135Z,35.70
2019-05-07T07:48:43.316Z,34.30
2019-05-07T07:51:13.590Z,34.00
2019-05-07T07:53:42.482Z,32.30
2019-05-07T07:56:25.248Z,31.40
2019-05-07T07:59:12.739Z,31.70
2019-05-07T08:01:45.684Z,29.50
2019-05-07T08:04:14.691Z,28.90
2019-05-07T08:06:43.600Z,27.30
2019-05-07T08:09:12.989Z,25.30
2019-05-07T08:11:42.692Z,24.30
2019-05-07T08:14:12.608Z,23.30
2019-05-07T08:16:42.935Z,22.90
2019-05-07T08:19:21.642Z,22.40
2019-05-07T08:21:42.299Z,23.00
2019-05-07T08:24:12.253Z,23.20
2019-05-07T08:26:42.830Z,23.30
2019-05-07T08:29:12.012Z,22.60
2019-05-07T08:31:58.680Z,22.50
2019-05-07T08:34:32.509Z,21.40
2019-05-07T08:37:01.892Z,21.10
2019-05-07T08:39:32.644Z,20.50
2019-05-07T08:42:02.072Z,19.40
2019-05-07T08:44:42.947Z,19.10
2019-05-07T08:47:15.842Z,18.30
2019-05-07T08:49:44.798Z,18.00
2019-05-07T08:52:13.394Z,18.10
2019-05-07T08:54:42.780Z,17.90
2019-05-07T08:57:12.132Z,18.70
2019-05-07T08:59:43.714Z,20.90
2019-05-07T09:02:12.611Z,21.60
2019-05-07T09:04:41.839Z,20.40
2019-05-07T09:07:12.984Z,19.00
2019-05-07T09:09:42.704Z,18.10
2019-05-07T09:12:12.436Z,17.40
2019-05-07T09:14:42.542Z,16.60
2019-05-07T09:17:12.714Z,17.00
2019-05-07T09:19:50.644Z,17.70
2019-05-07T09:22:12.811Z,17.30
2019-05-07T09:24:42.613Z,17.20
2019-05-07T09:27:12.952Z,17.40
2019-05-07T09:29:49.055Z,16.50
2019-05-07T09:32:32.716Z,15.30
2019-05-07T09:35:03.028Z,15.50
2019-05-07T09:37:33.563Z,16.00
2019-05-07T09:40:02.770Z,16.00
2019-05-07T09:42:33.212Z,16.40
2019-05-07T09:45:02.306Z,17.00
2019-05-07T09:47:32.498Z,16.30
2019-05-07T09:50:05.467Z,15.40
2019-05-07T09:52:32.136Z,15.70
2019-05-07T09:55:11.013Z,14.90
2019-05-07T09:57:34.391Z,15.00
2019-05-07T10:00:02.270Z,16.70
2019-05-07T10:02:31.977Z,18.10
2019-05-07T10:05:02.480Z,19.10
2019-05-07T10:07:32.432Z,19.70
2019-05-07T10:10:03.161Z,20.70
2019-05-07T10:12:42.831Z,20.60
2019-05-07T10:15:12.540Z,20.50
2019-05-07T10:17:51.809Z,20.70
2019-05-07T10:20:22.558Z,18.90
2019-05-07T10:22:52.013Z,19.20
2019-05-07T10:25:22.455Z,18.60
2019-05-07T10:27:53.123Z,17.00
2019-05-07T10:30:22.046Z,17.90
2019-05-07T10:32:52.638Z,18.20
2019-05-07T10:35:22.789Z,18.10
2019-05-07T10:37:52.874Z,18.10
2019-05-07T10:40:23.043Z,19.50
2019-05-07T10:42:51.996Z,19.10
2019-05-07T10:45:28.683Z,18.30
2019-05-07T10:48:13.988Z,19.50
2019-05-07T10:50:44.212Z,20.60
2019-05-07T10:53:12.919Z,20.10
2019-05-07T10:55:41.991Z,18.50
2019-05-07T10:58:12.012Z,17.60
2019-05-07T11:00:42.089Z,16.40
2019-05-07T11:03:12.670Z,16.10
2019-05-07T11:05:41.954Z,15.90
2019-05-07T11:08:11.216Z,15.70
2019-05-07T11:10:41.845Z,16.40
2019-05-07T11:13:12.665Z,18.40
2019-05-07T11:15:42.978Z,18.50
2019-05-07T11:18:25.502Z,18.10
2019-05-07T11:20:54.078Z,17.30
2019-05-07T11:23:22.785Z,17.50
2019-05-07T11:25:52.789Z,17.50
2019-05-07T11:28:22.728Z,17.00
2019-05-07T11:30:51.308Z,17.40
2019-05-07T11:33:21.849Z,17.90
2019-05-07T11:35:50.211Z,19.20
2019-05-07T11:38:24.148Z,21.10
2019-05-07T11:40:48.994Z,22.40
2019-05-07T11:43:19.133Z,23.40
2019-05-07T11:45:49.354Z,22.50
2019-05-07T11:48:18.951Z,23.40
2019-05-07T11:51:01.453Z,23.50
2019-05-07T11:53:23.744Z,24.30
2019-05-07T11:55:53.197Z,24.80
2019-05-07T11:58:22.093Z,25.40
2019-05-07T12:00:58.280Z,26.20
2019-05-07T12:03:26.847Z,26.80
2019-05-07T12:05:55.430Z,27.20
2019-05-07T12:08:37.388Z,27.40
2019-05-07T12:10:54.216Z,27.80
2019-05-07T12:13:22.795Z,28.10
2019-05-07T12:15:52.206Z,28.70
2019-05-07T12:18:22.705Z,29.20
2019-05-07T12:20:53.886Z,29.00
2019-05-07T12:23:22.658Z,27.80
2019-05-07T12:25:52.881Z,26.40
2019-05-07T12:28:22.524Z,25.00
2019-05-07T12:31:12.171Z,24.50
2019-05-07T12:33:48.397Z,24.40
2019-05-07T12:36:17.228Z,24.80
2019-05-07T12:38:45.802Z,24.50
2019-05-07T12:41:34.157Z,25.60
2019-05-07T12:44:06.043Z,26.00
2019-05-07T12:46:35.344Z,25.60
2019-05-07T12:49:05.261Z,26.60
2019-05-07T12:51:37.648Z,27.40
2019-05-07T12:54:11.972Z,26.30
2019-05-07T12:56:42.692Z,25.60
2019-05-07T12:59:12.814Z,26.20
2019-05-07T13:01:42.964Z,26.60
2019-05-07T13:04:19.012Z,27.60
2019-05-07T13:06:49.224Z,28.10
2019-05-07T13:09:17.725Z,29.10
2019-05-07T13:11:46.287Z,30.20
2019-05-07T13:14:14.857Z,29.10
2019-05-07T13:16:43.421Z,28.80
2019-05-07T13:19:13.211Z,27.70
2019-05-07T13:21:49.038Z,26.90
2019-05-07T13:24:14.915Z,27.20
2019-05-07T13:26:42.914Z,27.60
2019-05-07T13:29:12.775Z,29.00
2019-05-07T13:31:42.759Z,28.70
2019-05-07T13:34:12.253Z,27.40
2019-05-07T13:36:42.587Z,27.80
2019-05-07T13:39:12.937Z,28.00
2019-05-07T13:41:43.212Z,28.80
2019-05-07T13:44:25.965Z,29.60
2019-05-07T13:46:56.516Z,29.80
2019-05-07T13:49:25.519Z,29.80
2019-05-07T13:52:02.851Z,30.20
2019-05-07T13:54:24.395Z,31.40
2019-05-07T13:56:53.065Z,32.10
2019-05-07T13:59:22.458Z,32.80
2019-05-07T14:01:55.294Z,31.80
2019-05-07T14:04:23.835Z,32.40
2019-05-07T14:06:52.926Z,32.20
2019-05-07T14:09:24.356Z,31.90
2019-05-07T14:11:53.769Z,31.20
2019-05-07T14:14:22.729Z,31.40
2019-05-07T14:16:53.101Z,31.80
2019-05-07T14:19:22.519Z,31.70
2019-05-07T14:21:52.538Z,32.60
2019-05-07T14:24:22.426Z,32.90
2019-05-07T14:26:52.725Z,33.10
2019-05-07T14:29:24.353Z,34.20
2019-05-07T14:31:53.420Z,34.50
2019-05-07T14:34:26.398Z,35.10
2019-05-07T14:36:59.303Z,35.70
2019-05-07T14:39:27.790Z,35.40
2019-05-07T14:41:58.045Z,35.70
2019-05-07T14:44:28.294Z,35.00
2019-05-07T14:46:57.265Z,34.90
2019-05-07T14:49:25.894Z,34.80
2019-05-07T14:51:54.607Z,35.30
2019-05-07T14:54:23.184Z,35.40
2019-05-07T14:56:52.143Z,35.20
2019-05-07T14:59:20.611Z,35.70
2019-05-07T15:01:49.265Z,35.90
2019-05-07T15:04:18.218Z,35.80
2019-05-07T15:06:47.125Z,36.30
2019-05-07T15:09:15.662Z,36.70
2019-05-07T15:11:44.353Z,36.80
2019-05-07T15:14:12.883Z,37.60
2019-05-07T15:16:42.733Z,37.80
2019-05-07T15:19:12.439Z,37.40
2019-05-07T15:21:42.613Z,37.80
2019-05-07T15:24:14.592Z,37.90
2019-05-07T15:26:43.231Z,37.30
2019-05-07T15:29:13.137Z,36.90
2019-05-07T15:31:55.106Z,37.10
2019-05-07T15:34:24.010Z,37.10
2019-05-07T15:36:52.772Z,37.40
2019-05-07T15:39:22.264Z,38.00
2019-05-07T15:41:51.881Z,38.80
2019-05-07T15:44:20.704Z,38.80
2019-05-07T15:46:49.267Z,39.30
2019-05-07T15:49:17.768Z,39.20
2019-05-07T15:51:46.303Z,39.40
2019-05-07T15:54:14.876Z,40.20
2019-05-07T15:56:43.421Z,40.50
2019-05-07T15:59:13.634Z,40.50
2019-05-07T16:01:42.208Z,40.00
2019-05-07T16:04:21.722Z,40.40
2019-05-07T16:06:42.485Z,40.80
2019-05-07T16:09:12.983Z,40.30
2019-05-07T16:11:43.008Z,40.60
2019-05-07T16:14:14.555Z,40.00
2019-05-07T16:16:45.404Z,40.70
2019-05-07T16:19:18.898Z,38.70
2019-05-07T16:21:47.482Z,38.00
2019-05-07T16:24:16.130Z,37.10
2019-05-07T16:26:44.708Z,37.00
2019-05-07T16:29:13.563Z,37.60
2019-05-07T16:31:44.283Z,38.20
2019-05-07T16:34:12.975Z,39.00
2019-05-07T16:36:42.674Z,39.80
2019-05-07T16:39:12.118Z,40.10
2019-05-07T16:41:42.335Z,41.20
2019-05-07T16:44:12.261Z,41.50
2019-05-07T16:46:42.128Z,42.20
2019-05-07T16:49:12.711Z,42.90
2019-05-07T16:51:44.176Z,43.10
2019-05-07T16:54:12.233Z,43.40
2019-05-07T16:56:59.535Z,43.60
2019-05-07T16:59:28.437Z,44.20
2019-05-07T17:01:58.623Z,44.50
2019-05-07T17:04:27.123Z,44.60
2019-05-07T17:06:56.368Z,44.40
2019-05-07T17:09:24.876Z,44.30
2019-05-07T17:11:53.451Z,44.10
2019-05-07T17:14:22.003Z,44.90
2019-05-07T17:16:51.681Z,44.30
2019-05-07T17:19:22.380Z,44.10
2019-05-07T17:21:52.065Z,44.10
2019-05-07T17:24:22.331Z,44.10
2019-05-07T17:26:51.753Z,43.70
2019-05-07T17:29:22.601Z,44.10
2019-05-07T17:31:52.689Z,43.80
2019-05-07T17:34:22.130Z,44.60
2019-05-07T17:36:52.418Z,44.30
2019-05-07T17:39:22.665Z,44.40
2019-05-07T17:41:51.868Z,45.10
2019-05-07T17:44:23.086Z,45.10
2019-05-07T17:46:51.858Z,45.30
2019-05-07T17:49:21.924Z,45.20
2019-05-07T17:51:52.653Z,45.50
2019-05-07T17:54:22.455Z,45.70
2019-05-07T17:56:52.684Z,46.10
2019-05-07T17:59:21.550Z,46.30
2019-05-07T18:01:52.960Z,46.80
2019-05-07T18:04:21.944Z,46.90
2019-05-07T18:06:52.208Z,47.40
2019-05-07T18:09:22.526Z,47.70
2019-05-07T18:11:52.194Z,48.00
2019-05-07T18:14:22.814Z,48.60
2019-05-07T18:16:58.499Z,49.00
2019-05-07T18:19:28.940Z,49.60
2019-05-07T18:21:57.572Z,50.60
2019-05-07T18:24:26.118Z,51.00
2019-05-07T18:26:54.729Z,51.40
2019-05-07T18:29:23.305Z,51.80
2019-05-07T18:31:57.895Z,52.00
2019-05-07T18:34:26.508Z,52.40
2019-05-07T18:36:55.085Z,52.80
2019-05-07T18:39:23.673Z,53.10
2019-05-07T18:41:53.449Z,52.70
2019-05-07T18:44:22.451Z,52.70
2019-05-07T18:46:52.846Z,53.50
2019-05-07T18:49:21.537Z,53.30
2019-05-07T18:51:52.019Z,53.20
2019-05-07T18:54:27.837Z,53.60
2019-05-07T18:56:52.706Z,53.60
2019-05-07T18:59:22.389Z,53.80
2019-05-07T19:01:52.730Z,53.70
2019-05-07T19:04:21.959Z,53.90
2019-05-07T19:06:51.736Z,54.20
2019-05-07T19:09:22.490Z,54.30
2019-05-07T19:11:52.245Z,54.50
2019-05-07T19:14:22.725Z,54.30
2019-05-07T19:16:52.622Z,54.20
2019-05-07T19:19:22.273Z,54.30
2019-05-07T19:21:52.826Z,54.70
2019-05-07T19:24:23.123Z,54.80
2019-05-07T19:26:52.871Z,54.90
2019-05-07T19:29:23.340Z,55.00
2019-05-07T19:31:52.615Z,55.50
2019-05-07T19:34:21.960Z,55.90
2019-05-07T19:36:52.013Z,56.10
2019-05-07T19:39:23.176Z,55.90
2019-05-07T19:41:52.369Z,55.70
2019-05-07T19:44:21.378Z,56.00
2019-05-07T19:46:52.231Z,56.80
2019-05-07T19:49:20.080Z,56.80
2019-05-07T19:51:48.686Z,56.80
2019-05-07T19:54:17.155Z,56.90
2019-05-07T19:56:45.758Z,56.90
2019-05-07T19:59:14.332Z,57.80
2019-05-07T20:01:44.508Z,57.50
2019-05-07T20:04:13.613Z,57.80
2019-05-07T20:06:42.932Z,58.30
2019-05-07T20:09:14.784Z,58.40
2019-05-07T20:11:46.164Z,58.60
2019-05-07T20:14:14.812Z,58.40
2019-05-07T20:16:43.666Z,58.40
2019-05-07T20:19:12.267Z,58.60
2019-05-07T20:21:40.837Z,59.20
2019-05-07T20:24:09.480Z,59.20
2019-05-07T20:26:38.085Z,59.20
2019-05-07T20:29:06.631Z,59.60
2019-05-07T20:31:35.172Z,59.70
2019-05-07T20:34:03.857Z,59.60
2019-05-07T20:36:32.893Z,60.10
2019-05-07T20:39:02.160Z,60.30
2019-05-07T20:41:32.497Z,60.50
2019-05-07T20:44:02.791Z,60.90
2019-05-07T20:46:32.768Z,60.50
2019-05-07T20:49:02.853Z,60.40
2019-05-07T20:51:32.556Z,60.50
2019-05-07T20:54:08.935Z,60.20
2019-05-07T20:56:55.399Z,60.30
2019-05-07T20:59:23.960Z,60.60
2019-05-07T21:01:52.705Z,60.40
2019-05-07T21:04:22.305Z,60.70
2019-05-07T21:06:52.518Z,60.60
2019-05-07T21:09:22.201Z,61.00
2019-05-07T21:11:51.090Z,61.40
2019-05-07T21:14:19.694Z,61.80
2019-05-07T21:16:48.268Z,62.00
2019-05-07T21:19:16.833Z,62.30
2019-05-07T21:21:45.418Z,62.30
2019-05-07T21:24:14.806Z,62.40
2019-05-07T21:26:43.380Z,62.40
2019-05-07T21:29:13.686Z,62.60
2019-05-07T21:31:43.061Z,62.80
2019-05-07T21:34:12.489Z,63.20
2019-05-07T21:36:43.256Z,63.10
2019-05-07T21:39:12.950Z,62.90
2019-05-07T21:41:42.636Z,63.30
2019-05-07T21:44:12.288Z,63.50
2019-05-07T21:46:42.522Z,63.50
2019-05-07T21:49:12.279Z,63.40
2019-05-07T21:51:41.098Z,63.50
2019-05-07T21:54:13.898Z,63.90
2019-05-07T21:56:46.659Z,63.80
2019-05-07T21:59:21.792Z,64.00
2019-05-07T22:01:52.606Z,64.10
2019-05-07T22:04:21.440Z,63.90
2019-05-07T22:06:52.153Z,64.00
2019-05-07T22:09:22.360Z,63.90
2019-05-07T22:11:53.539Z,64.10
2019-05-07T22:14:22.172Z,64.10
2019-05-07T22:16:54.217Z,64.20
2019-05-07T22:19:21.212Z,63.90
2019-05-07T22:21:52.160Z,64.10
2019-05-07T22:24:22.186Z,64.50
2019-05-07T22:26:50.144Z,64.60
2019-05-07T22:29:18.686Z,65.60
2019-05-07T22:31:57.714Z,65.10
2019-05-07T22:34:28.000Z,65.50
2019-05-07T22:36:56.530Z,65.30
2019-05-07T22:39:25.498Z,65.40
2019-05-07T22:41:54.234Z,65.50
2019-05-07T22:44:26.140Z,65.90
2019-05-07T22:46:53.876Z,65.70
2019-05-07T22:49:23.402Z,66.00
2019-05-07T22:51:52.564Z,66.20
2019-05-07T22:54:22.716Z,66.30
2019-05-07T22:57:03.091Z,66.50
2019-05-07T22:59:32.858Z,66.50
2019-05-07T23:02:03.038Z,66.70
2019-05-07T23:04:32.648Z,66.70
2019-05-07T23:07:02.236Z,66.90
2019-05-07T23:09:30.938Z,67.00
2019-05-07T23:12:01.744Z,67.30
2019-05-07T23:14:29.718Z,67.20
2019-05-07T23:16:58.235Z,67.30
2019-05-07T23:19:26.848Z,67.50
2019-05-07T23:21:55.375Z,67.70
2019-05-07T23:24:24.950Z,67.70
2019-05-07T23:26:53.951Z,67.70
2019-05-07T23:29:22.874Z,67.90
2019-05-07T23:31:52.826Z,68.10
2019-05-07T23:34:22.160Z,68.10
2019-05-07T23:36:53.312Z,68.10
2019-05-07T23:39:23.034Z,68.20
2019-05-07T23:41:53.276Z,68.30
2019-05-07T23:44:22.877Z,68.70
2019-05-07T23:46:52.048Z,69.20
2019-05-07T23:49:22.954Z,68.50
2019-05-07T23:51:52.824Z,68.50
2019-05-07T23:54:23.003Z,68.60
2019-05-07T23:57:05.458Z,68.90
2019-05-07T23:59:22.362Z,68.80
